Terminal Aerodrome Forecast
Issued by NWS

Home | Current Version | Previous Version | Text Only | Print | Product List | Glossary Off
Versions: 1 2 3 4 5 6 7 8 9 10 11 12 13 14

000
FTUS43 KMPX 180500
TAFRWF
TAF
KRWF 180527Z 1806/1906 13003KT P6SM BKN100
     FM180900 13005KT P6SM SCT040 BKN090
     FM181500 13013G20KT P6SM SCT100 BKN200
     FM181800 14019G28KT P6SM SCT100 SCT250
     FM190000 13015G21KT P6SM SCT100 BKN200=

USA.gov is the U.S. government's official web portal to all federal, state and local government web resources and services.